Lago Argentino, Argentina

1:07 PM ART on September 17, 2014 (GMT -0300)
El Calafate | Change Station
CLOSE
Current Station
Airport
Location: El Calafate Airport,
Elevation: 666 ft
Nearby Weather Stations

Elev 666 ft 50.28 °S, 72.05 °W | Updated 2 days ago

Cloudy
Cloudy
42 °F
Feels Like 42 °F
N
9
Wind Variable Wind from West
Gusts mph

Today
High -- | Low -- °F
--% Chance of Precip.
Yesterday
High -- | Low -- °F
Precip. -- in
7:49 AM 7:39 PM
Waning Crescent, 35% visible
Pressure 29.62 in
Visibility 6.2 miles
Clouds Few 2000 ft
Scattered Clouds 4000 ft
Dew Point 36 °F
Humidity 80%
Rainfall 0.59 in
Snow Depth Not available.
UV 0 out of 12
Pollen Not available.
Air Quality Not available.
Flu Activity Not available.
SPECI SAWC 142112Z 27013KT 9999 VCSH FEW020 SCT040 06/04 Q1003

More Conditions Fewer Conditions

Pressure 29.62 in
Visibility 6.2 miles
Clouds Few 2000 ft
Scattered Clouds 4000 ft
Dew Point 36 °F
Humidity 80%
Rainfall 0.59 in
Snow Depth Not available.
UV 0 out of 12
Pollen Not available.
Air Quality Not available.
Flu Activity Not available.
SPECI SAWC 142112Z 27013KT 9999 VCSH FEW020 SCT040 06/04 Q1003

More Conditions Fewer Conditions

10-Day Weather Forecast

Almanac

Astronomy

Sep. 17, 2014 Rise Set
Actual Time 7:49 AM ART 7:39 PM ART
Civil Twilight 7:16 AM ART 8:11 PM ART
Nautical Twilight 6:38 AM ART 8:49 PM ART
Astronomical Twilight 5:59 AM ART 9:28 PM ART
Moon 4:11 AM ART 1:25 PM ART
Length of Visible Light 12h 54m
Length of Day
11h 50m
Tomorrow will be 3m 45s longer.
Waning Crescent, 35% of the Moon is Illuminated
Today
Waning Crescent
Sep 24
New
Oct 1
First Quarter
Oct 8
Full
Oct 15
Last Quarter

Today's Extremes

Country Highs Country Lows

Community

WunderPhotos

Upload Photos

1,754,091 photos uploaded!

Nearby

Snow Depth

Not available.

Earthquake Activity

City Distance Mag. Time & Date
No recent earthquake activity has been reported nearby.
Minimum magnitude displayed is 2.5.

Coastal Water Temperatures

Place Temperature
No Stations Reporting

Nearby Weather Stations